Terminal Aerodrome Forecast
Issued by NWS Bismarck, ND

Home | Current Version | Previous Version | Graphics & Text | Print | Product List | Glossary On
Versions: 1 2 3 4 5 6 7 8 9 10 11 12 13 14 15 16 17 18 19 20 21 22 23 24 25 26 27 28
000
FTUS43 KBIS 262300
TAFBIS
TAF
KBIS 262336Z 2700/2724 15004KT P6SM SCT015 BKN090
     FM270300 15004KT P6SM SKC
      TEMPO 2710/2714 5SM BR SCT010
     FM271500 16007KT P6SM SCT100=

USA.gov is the U.S. government's official web portal to all federal, state and local government web resources and services.